メインページ
METAR-TAF:

METAR-TAF

空港 :

Earlton, オンタリオ州, カナダ

緯度: 47-42N, 経度: 079-51W, 海抜: 243m

現時点の気象観測

当レポートは2時間33分前の14:00(UTC)に作成
無風
気温 17°C
湿度 100%
気圧 1010 hPa
視程: 14.5km
高度1900ftの雲はほとんどない
高度3000ftの千切れ雲あり
高度4100ftの千切れ雲あり
高度7200ftの曇り

METAR: CYXR 211400Z AUTO 00000KT 9SM FEW019 BKN030 BKN041 OVC072 17/17 A2982 RMK SLP100 DENSITY ALT 1300FT

時間: 12:33 (16:33 UTC)

予報

当レポートは4時間55分前の11:38(UTC)に作成
予報は21日の 12時(UTC)から 21日の 24時(UTC)まで有効
変向風 3kt
視程: 10km
高度5000ftの千切れ雲あり
21日の 12時(UTC)から 21日の 14時(UTC)まで一時的に
視程: 8.0km
高度200ftの千切れ雲あり
高度5000ftの曇り
21日の 1400時(UTC)から
変向風 3kt
視程: 10km
高度1500ftの雲は散在している
高度4000ftの千切れ雲あり
21日の 14時(UTC)から 21日の 18時(UTC)まで一時的に
視程: 8.0km
高度1500ftの千切れ雲あり
高度4000ftの曇り
弱いにわか雨, 靄
21日の 1800時(UTC)から
変向風 3kt
視程: 10km
高度6000ftの千切れ雲あり
21日の 18時(UTC)から 21日の 24時(UTC)まで一時的に
視程: 10km
高度4000ftの千切れ雲あり
弱いにわか雨
確率 30%
21日の 20時(UTC)から 21日の 24時(UTC)まで
視程: 3.2km
高度4000ftの千切れ雲あり, 積乱雲.
激しい雷雨, 雨, 靄

TAF: CYXR 211138Z 2112/2124 VRB03KT P6SM BKN050 TEMPO 2112/2114 5SM BR BKN002 OVC050 FM211400 VRB03KT P6SM SCT015 BKN040 TEMPO 2114/2118 5SM -SHRA BR BKN015 OVC040 FM211800 VRB03KT P6SM BKN060 TEMPO 2118/2124 P6SM -SHRA BKN040 PROB30 2120/2124 2SM TSRA BR BKN040CB RMK FCST BASED ON AUTO OBS. NXT FCST BY 211800Z

4,000以上の空港の気象観測と天気予報(METAR報とTAF報)

利用可能な観測所は地図上に黄色い丸と赤い丸で示す。

丸の上にカーソルを重ねると観測所名を参照できる。

次にクリックすると気象観測と天気予報を参照できる。

マップの切り替え:黒色「×」印の緑ボタンをクリックして拡大、「-」印の緑ボタンをクリックして縮小、緑色の三角印をクリックして隣りの地図に切り替え


METAR-TAF: